createdAt,value
2022-09-20T00:01:21.080Z,100.00
2022-09-20T00:03:49.242Z,100.00
2022-09-20T00:06:17.514Z,100.00
2022-09-20T00:08:44.438Z,100.00
2022-09-20T00:11:15.527Z,100.00
2022-09-20T00:13:42.809Z,100.00
2022-09-20T00:16:11.607Z,100.00
2022-09-20T00:18:38.288Z,100.00
2022-09-20T00:21:05.384Z,100.00
2022-09-20T00:23:32.790Z,100.00
2022-09-20T00:26:03.121Z,100.00
2022-09-20T00:28:30.063Z,100.00
2022-09-20T00:30:56.857Z,100.00
2022-09-20T00:33:24.318Z,100.00
2022-09-20T00:35:50.862Z,100.00
2022-09-20T00:38:17.449Z,100.00
2022-09-20T00:40:44.734Z,100.00
2022-09-20T00:43:15.989Z,100.00
2022-09-20T00:45:44.324Z,100.00
2022-09-20T00:48:22.863Z,100.00
2022-09-20T00:50:56.424Z,100.00
2022-09-20T00:53:34.082Z,100.00
2022-09-20T00:56:15.624Z,100.00
2022-09-20T00:58:44.477Z,100.00
2022-09-20T01:01:11.784Z,100.00
2022-09-20T01:03:39.270Z,100.00
2022-09-20T01:06:08.075Z,100.00
2022-09-20T01:08:35.964Z,100.00
2022-09-20T01:11:02.569Z,100.00
2022-09-20T01:13:29.180Z,100.00
2022-09-20T01:15:59.065Z,100.00
2022-09-20T01:18:26.593Z,100.00
2022-09-20T01:20:53.542Z,100.00
2022-09-20T01:23:20.114Z,100.00
2022-09-20T01:25:58.519Z,100.00
2022-09-20T01:28:26.408Z,100.00
2022-09-20T01:30:58.889Z,100.00
2022-09-20T01:33:44.358Z,100.00
2022-09-20T01:36:14.179Z,100.00
2022-09-20T01:38:40.699Z,100.00
2022-09-20T01:41:22.031Z,100.00
2022-09-20T01:43:51.972Z,100.00
2022-09-20T01:46:18.691Z,100.00
2022-09-20T01:48:45.413Z,100.00
2022-09-20T01:51:15.077Z,100.00
2022-09-20T01:54:00.213Z,100.00
2022-09-20T01:56:45.385Z,100.00
2022-09-20T01:59:30.870Z,100.00
2022-09-20T02:02:09.174Z,100.00
2022-09-20T02:04:48.021Z,100.00
2022-09-20T02:07:17.584Z,100.00
2022-09-20T02:09:44.380Z,100.00
2022-09-20T02:12:14.243Z,100.00
2022-09-20T02:15:06.358Z,100.00
2022-09-20T02:17:49.608Z,100.00
2022-09-20T02:20:23.274Z,100.00
2022-09-20T02:23:16.180Z,100.00
2022-09-20T02:25:53.043Z,100.00
2022-09-20T02:28:31.860Z,100.00
2022-09-20T02:31:01.409Z,100.00
2022-09-20T02:33:46.743Z,100.00
2022-09-20T02:36:16.057Z,100.00
2022-09-20T02:38:48.639Z,100.00
2022-09-20T02:41:36.528Z,100.00
2022-09-20T02:44:15.108Z,100.00
2022-09-20T02:46:47.974Z,100.00
2022-09-20T02:49:37.473Z,100.00
2022-09-20T02:52:08.176Z,100.00
2022-09-20T02:54:46.690Z,100.00
2022-09-20T02:57:21.439Z,100.00
2022-09-20T02:59:54.577Z,100.00
2022-09-20T03:02:21.155Z,100.00
2022-09-20T03:04:53.816Z,100.00
2022-09-20T03:07:30.531Z,100.00
2022-09-20T03:10:05.949Z,100.00
2022-09-20T03:12:44.857Z,100.00
2022-09-20T03:15:14.215Z,100.00
2022-09-20T03:17:48.406Z,100.00
2022-09-20T03:20:44.627Z,100.00
2022-09-20T03:23:14.006Z,100.00
2022-09-20T03:26:06.823Z,100.00
2022-09-20T03:28:33.336Z,100.00
2022-09-20T03:31:14.871Z,100.00
2022-09-20T03:33:50.519Z,100.00
2022-09-20T03:36:20.350Z,100.00
2022-09-20T03:39:05.358Z,100.00
2022-09-20T03:41:40.592Z,100.00
2022-09-20T03:44:18.212Z,100.00
2022-09-20T03:46:46.415Z,100.00
2022-09-20T03:49:25.147Z,100.00
2022-09-20T03:52:10.089Z,100.00
2022-09-20T03:54:42.829Z,100.00
2022-09-20T03:57:21.740Z,100.00
2022-09-20T04:00:03.915Z,100.00
2022-09-20T04:02:47.410Z,100.00
2022-09-20T04:05:28.558Z,100.00
2022-09-20T04:07:55.051Z,100.00
2022-09-20T04:10:30.600Z,100.00
2022-09-20T04:12:57.241Z,100.00
2022-09-20T04:15:30.545Z,100.00
2022-09-20T04:18:03.118Z,100.00
2022-09-20T04:20:29.753Z,100.00
2022-09-20T04:22:59.234Z,100.00
2022-09-20T04:25:33.692Z,100.00
2022-09-20T04:28:04.788Z,100.00
2022-09-20T04:30:33.734Z,100.00
2022-09-20T04:33:02.219Z,100.00
2022-09-20T04:36:02.701Z,100.00
2022-09-20T04:38:29.496Z,100.00
2022-09-20T04:41:07.787Z,100.00
2022-09-20T04:43:53.838Z,100.00
2022-09-20T04:46:39.106Z,100.00
2022-09-20T04:49:24.023Z,100.00
2022-09-20T04:52:04.051Z,100.00
2022-09-20T04:54:36.757Z,100.00
2022-09-20T04:57:21.987Z,100.00
2022-09-20T05:00:04.136Z,100.00
2022-09-20T05:02:46.983Z,100.00
2022-09-20T05:05:16.492Z,100.00
2022-09-20T05:07:56.850Z,100.00
2022-09-20T05:10:26.472Z,100.00
2022-09-20T05:13:12.632Z,100.00
2022-09-20T05:15:39.240Z,100.00
2022-09-20T05:18:14.671Z,100.00
2022-09-20T05:20:50.350Z,100.00
2022-09-20T05:23:17.285Z,100.00
2022-09-20T05:25:51.795Z,99.75
2022-09-20T05:28:19.364Z,99.95
2022-09-20T05:31:01.609Z,100.00
2022-09-20T05:33:46.874Z,99.61
2022-09-20T05:36:17.440Z,99.65
2022-09-20T05:38:47.363Z,99.19
2022-09-20T05:41:31.910Z,98.96
2022-09-20T05:44:16.976Z,98.79
2022-09-20T05:46:54.924Z,98.31
2022-09-20T05:49:44.571Z,98.03
2022-09-20T05:52:29.516Z,97.41
2022-09-20T05:55:05.048Z,98.25
2022-09-20T05:57:41.058Z,97.80
2022-09-20T06:00:13.544Z,98.35
2022-09-20T06:02:45.864Z,98.19
2022-09-20T06:05:12.439Z,98.54
2022-09-20T06:07:41.738Z,98.97
2022-09-20T06:10:17.335Z,99.87
2022-09-20T06:13:08.889Z,100.00
2022-09-20T06:15:35.433Z,100.00
2022-09-20T06:18:11.087Z,100.00
2022-09-20T06:20:44.376Z,100.00
2022-09-20T06:23:11.423Z,100.00
2022-09-20T06:25:59.324Z,100.00
2022-09-20T06:28:28.424Z,99.64
2022-09-20T06:30:55.772Z,99.48
2022-09-20T06:33:25.194Z,96.75
2022-09-20T06:35:58.839Z,96.30
2022-09-20T06:39:02.836Z,96.14
2022-09-20T06:41:33.019Z,93.69
2022-09-20T06:44:00.369Z,91.70
2022-09-20T06:46:28.129Z,91.41
2022-09-20T06:48:55.347Z,91.87
2022-09-20T06:51:22.835Z,90.95
2022-09-20T06:53:49.879Z,90.17
2022-09-20T06:56:20.604Z,89.43
2022-09-20T06:58:47.391Z,88.71
2022-09-20T07:01:14.104Z,88.87
2022-09-20T07:03:41.648Z,88.35
2022-09-20T07:06:09.431Z,87.87
2022-09-20T07:08:36.431Z,87.11
2022-09-20T07:11:04.276Z,86.47
2022-09-20T07:13:30.929Z,87.15
2022-09-20T07:16:02.243Z,87.04
2022-09-20T07:18:29.254Z,86.71
2022-09-20T07:20:58.752Z,86.62
2022-09-20T07:23:25.871Z,87.59
2022-09-20T07:25:52.649Z,86.52
2022-09-20T07:28:22.193Z,87.20
2022-09-20T07:30:49.912Z,86.55
2022-09-20T07:33:21.603Z,87.43
2022-09-20T07:35:48.971Z,85.76
2022-09-20T07:38:15.906Z,84.63
2022-09-20T07:40:42.721Z,85.22
2022-09-20T07:43:09.320Z,85.01
2022-09-20T07:45:38.346Z,85.70
2022-09-20T07:48:06.378Z,85.61
2022-09-20T07:50:33.276Z,85.33
2022-09-20T07:53:00.088Z,84.30
2022-09-20T07:55:26.655Z,84.75
2022-09-20T07:57:54.377Z,84.44
2022-09-20T08:00:21.062Z,84.94
2022-09-20T08:02:47.816Z,85.67
2022-09-20T08:05:14.435Z,85.25
2022-09-20T08:07:41.008Z,84.98
2022-09-20T08:10:07.841Z,85.73
2022-09-20T08:15:22.137Z,82.73
2022-09-20T08:17:48.705Z,81.95
2022-09-20T08:20:15.643Z,81.88
2022-09-20T08:22:43.379Z,82.35
2022-09-20T08:25:09.958Z,78.52
2022-09-20T08:27:38.158Z,77.68
2022-09-20T08:30:04.902Z,76.81
2022-09-20T08:32:32.539Z,78.34
2022-09-20T08:34:59.160Z,78.01
2022-09-20T08:37:26.649Z,77.96
2022-09-20T08:39:57.740Z,76.43
2022-09-20T08:42:33.653Z,76.47
2022-09-20T08:45:06.687Z,76.76
2022-09-20T08:47:36.187Z,77.50
2022-09-20T08:50:11.614Z,77.32
2022-09-20T08:52:40.662Z,77.68
2022-09-20T08:55:36.517Z,78.90
2022-09-20T08:58:08.153Z,77.31
2022-09-20T09:00:36.386Z,77.33
2022-09-20T09:03:21.243Z,77.07
2022-09-20T09:05:52.851Z,78.20
2022-09-20T09:08:19.445Z,78.88
2022-09-20T09:10:47.860Z,78.59
2022-09-20T09:13:18.441Z,76.54
2022-09-20T09:15:45.458Z,77.07
2022-09-20T09:18:12.110Z,77.23
2022-09-20T09:20:43.404Z,77.72
2022-09-20T09:23:21.414Z,76.38
2022-09-20T09:25:48.961Z,77.01
2022-09-20T09:28:15.859Z,74.43
2022-09-20T09:30:44.021Z,75.26
2022-09-20T09:33:20.026Z,75.03
2022-09-20T09:35:54.394Z,74.09
2022-09-20T09:38:24.176Z,73.39
2022-09-20T09:40:54.931Z,76.11
2022-09-20T09:43:24.592Z,75.34
2022-09-20T09:45:51.215Z,75.54
2022-09-20T09:48:17.803Z,76.21
2022-09-20T09:50:44.662Z,75.57
2022-09-20T09:53:13.847Z,75.69
2022-09-20T09:55:58.165Z,76.06
2022-09-20T09:58:31.471Z,75.98
2022-09-20T10:01:01.315Z,74.92
2022-09-20T10:03:48.242Z,72.63
2022-09-20T10:06:18.966Z,72.35
2022-09-20T10:09:12.108Z,72.36
2022-09-20T10:11:47.611Z,73.19
2022-09-20T10:14:14.229Z,72.80
2022-09-20T10:16:53.229Z,69.65
2022-09-20T10:19:22.786Z,68.41
2022-09-20T10:21:50.943Z,68.11
2022-09-20T10:24:24.790Z,66.30
2022-09-20T10:26:57.617Z,63.37
2022-09-20T10:29:30.909Z,62.20
2022-09-20T10:32:13.822Z,62.42
2022-09-20T10:34:59.963Z,61.72
2022-09-20T10:37:35.835Z,65.38
2022-09-20T10:40:22.760Z,66.75
2022-09-20T10:43:09.446Z,67.48
2022-09-20T10:46:20.656Z,69.27
2022-09-20T10:48:49.207Z,69.65
2022-09-20T10:51:25.824Z,69.62
2022-09-20T10:53:52.529Z,71.06
2022-09-20T10:56:28.624Z,71.32
2022-09-20T10:59:01.169Z,71.63
2022-09-20T11:01:48.063Z,71.83
2022-09-20T11:04:15.796Z,72.38
2022-09-20T11:06:48.273Z,72.24
2022-09-20T11:09:18.417Z,70.40
2022-09-20T11:11:54.045Z,70.55
2022-09-20T11:14:23.281Z,71.49
2022-09-20T11:16:56.238Z,72.29
2022-09-20T11:19:27.540Z,72.47
2022-09-20T11:21:58.489Z,73.87
2022-09-20T11:24:42.236Z,74.21
2022-09-20T11:27:25.705Z,73.78
2022-09-20T11:29:52.255Z,71.10
2022-09-20T11:32:28.505Z,65.38
2022-09-20T11:34:57.116Z,63.10
2022-09-20T11:37:28.346Z,59.13
2022-09-20T11:39:55.596Z,61.22
2022-09-20T11:42:28.664Z,60.13
2022-09-20T11:44:55.491Z,61.81
2022-09-20T11:47:42.720Z,62.92
2022-09-20T11:50:09.163Z,61.16
2022-09-20T11:52:54.558Z,54.72
2022-09-20T11:55:21.587Z,52.58
2022-09-20T11:57:59.077Z,57.22
2022-09-20T12:00:30.502Z,50.44
2022-09-20T12:02:57.496Z,49.15
2022-09-20T12:05:33.675Z,48.60
2022-09-20T12:08:02.107Z,51.26
2022-09-20T12:10:30.707Z,53.48
2022-09-20T12:13:01.484Z,52.36
2022-09-20T12:15:30.966Z,52.09
2022-09-20T12:17:57.582Z,55.17
2022-09-20T12:20:34.364Z,56.14
2022-09-20T12:23:20.894Z,58.75
2022-09-20T12:26:02.074Z,60.02
2022-09-20T12:28:39.108Z,61.02
2022-09-20T12:31:31.984Z,60.68
2022-09-20T12:34:13.854Z,60.53
2022-09-20T12:36:40.379Z,61.68
2022-09-20T12:39:11.035Z,61.96
2022-09-20T12:41:52.773Z,63.92
2022-09-20T12:44:25.668Z,63.19
2022-09-20T12:46:55.508Z,62.94
2022-09-20T12:49:40.952Z,60.10
2022-09-20T12:52:47.129Z,62.15
2022-09-20T12:55:30.100Z,66.15
2022-09-20T12:58:02.841Z,66.07
2022-09-20T13:00:52.592Z,66.29
2022-09-20T13:03:24.935Z,66.07
2022-09-20T13:06:12.400Z,66.56
2022-09-20T13:08:54.162Z,68.89
2022-09-20T13:11:23.523Z,68.69
2022-09-20T13:13:52.041Z,67.65
2022-09-20T13:16:34.219Z,67.22
2022-09-20T13:19:05.703Z,65.39
2022-09-20T13:21:38.234Z,65.02
2022-09-20T13:24:05.380Z,63.15
2022-09-20T13:26:44.366Z,61.59
2022-09-20T13:29:22.351Z,62.47
2022-09-20T13:31:48.957Z,61.98
2022-09-20T13:34:23.560Z,62.56
2022-09-20T13:36:56.320Z,58.29
2022-09-20T13:39:32.168Z,58.60
2022-09-20T13:42:02.188Z,57.34
2022-09-20T13:44:33.408Z,58.45
2022-09-20T13:47:00.232Z,57.73
2022-09-20T13:49:30.916Z,57.81
2022-09-20T13:51:57.648Z,57.84
2022-09-20T13:54:30.473Z,57.66
2022-09-20T13:56:59.932Z,57.90
2022-09-20T13:59:30.176Z,53.70
2022-09-20T14:01:57.555Z,55.42
2022-09-20T14:04:26.091Z,55.75
2022-09-20T14:06:53.785Z,56.30
2022-09-20T14:09:40.686Z,51.11
2022-09-20T14:12:07.560Z,55.59
2022-09-20T14:14:34.942Z,55.75
2022-09-20T14:17:04.390Z,58.30
2022-09-20T14:19:32.945Z,60.00
2022-09-20T14:22:02.741Z,62.00
2022-09-20T14:24:33.045Z,63.07
2022-09-20T14:27:01.927Z,64.83
2022-09-20T14:29:32.198Z,65.79
2022-09-20T14:32:00.248Z,66.23
2022-09-20T14:34:26.909Z,67.88
2022-09-20T14:37:02.538Z,69.88
2022-09-20T14:39:29.135Z,70.12
2022-09-20T14:41:56.636Z,69.78
2022-09-20T14:44:30.637Z,70.05
2022-09-20T14:46:57.713Z,71.35
2022-09-20T14:49:24.255Z,72.87
2022-09-20T14:51:51.588Z,72.39
2022-09-20T14:54:25.785Z,71.75
2022-09-20T14:56:57.694Z,72.49
2022-09-20T14:59:28.482Z,74.03
2022-09-20T15:02:00.948Z,71.10
2022-09-20T15:04:28.571Z,71.00
2022-09-20T15:06:56.589Z,75.69
2022-09-20T15:09:23.206Z,74.46
2022-09-20T15:11:59.902Z,76.07
2022-09-20T15:14:26.501Z,75.30
2022-09-20T15:16:53.234Z,73.80
2022-09-20T15:19:19.801Z,77.58
2022-09-20T15:21:46.346Z,77.94
2022-09-20T15:24:13.029Z,79.01
2022-09-20T15:26:39.836Z,77.94
2022-09-20T15:29:07.916Z,80.40
2022-09-20T15:31:34.614Z,77.32
2022-09-20T15:34:01.461Z,78.77
2022-09-20T15:36:31.942Z,79.45
2022-09-20T15:38:58.907Z,77.85
2022-09-20T15:41:29.217Z,77.03
2022-09-20T15:43:57.869Z,80.51
2022-09-20T15:46:27.107Z,78.42
2022-09-20T15:48:54.049Z,81.96
2022-09-20T15:51:20.621Z,80.48
2022-09-20T15:53:49.429Z,79.08
2022-09-20T15:56:21.311Z,78.85
2022-09-20T15:58:48.841Z,79.13
2022-09-20T16:01:16.805Z,79.47
2022-09-20T16:03:44.163Z,81.83
2022-09-20T16:06:10.798Z,81.85
2022-09-20T16:08:39.092Z,80.40
2022-09-20T16:11:06.919Z,81.17
2022-09-20T16:13:33.925Z,80.69
2022-09-20T16:16:01.260Z,81.75
2022-09-20T16:18:46.993Z,81.84
2022-09-20T16:21:14.643Z,81.49
2022-09-20T16:23:41.978Z,83.27
2022-09-20T16:26:13.216Z,82.86
2022-09-20T16:28:43.986Z,82.66
2022-09-20T16:31:29.870Z,85.04
2022-09-20T16:33:56.863Z,85.63
2022-09-20T16:36:27.439Z,86.34
2022-09-20T16:38:55.792Z,84.55
2022-09-20T16:41:23.425Z,87.11
2022-09-20T16:43:52.290Z,85.81
2022-09-20T16:46:20.531Z,84.33
2022-09-20T16:48:47.734Z,84.27
2022-09-20T16:51:15.054Z,84.31
2022-09-20T16:53:41.961Z,86.33
2022-09-20T16:56:08.505Z,88.61
2022-09-20T16:58:36.315Z,85.63
2022-09-20T17:01:04.060Z,85.21
2022-09-20T17:03:31.139Z,85.12
2022-09-20T17:06:01.398Z,87.31
2022-09-20T17:08:28.034Z,87.46
2022-09-20T17:10:58.336Z,90.01
2022-09-20T17:13:25.459Z,88.70
2022-09-20T17:16:05.580Z,87.13
2022-09-20T17:18:33.509Z,88.02
2022-09-20T17:21:04.773Z,88.14
2022-09-20T17:23:34.005Z,91.79
2022-09-20T17:26:07.675Z,91.44
2022-09-20T17:28:35.628Z,93.07
2022-09-20T17:31:02.659Z,93.62
2022-09-20T17:33:35.348Z,94.22
2022-09-20T17:36:03.519Z,94.60
2022-09-20T17:38:33.660Z,95.10
2022-09-20T17:41:10.745Z,94.89
2022-09-20T17:43:38.117Z,94.47
2022-09-20T17:46:06.142Z,95.32
2022-09-20T17:48:34.352Z,95.60
2022-09-20T17:51:02.404Z,95.77
2022-09-20T17:53:33.084Z,95.70
2022-09-20T17:56:00.300Z,96.06
2022-09-20T17:58:27.219Z,95.99
2022-09-20T18:00:56.672Z,94.82
2022-09-20T18:03:24.099Z,93.58
2022-09-20T18:05:51.466Z,93.78
2022-09-20T18:08:19.009Z,93.33
2022-09-20T18:10:58.627Z,93.04
2022-09-20T18:13:27.504Z,93.07
2022-09-20T18:15:54.757Z,93.00
2022-09-20T18:18:21.464Z,93.08
2022-09-20T18:20:48.266Z,92.81
2022-09-20T18:23:15.092Z,93.18
2022-09-20T18:26:00.107Z,93.37
2022-09-20T18:28:26.979Z,93.31
2022-09-20T18:31:03.273Z,93.73
2022-09-20T18:33:31.139Z,93.59
2022-09-20T18:36:02.540Z,93.88
2022-09-20T18:38:29.946Z,94.03
2022-09-20T18:41:03.000Z,93.70
2022-09-20T18:43:30.377Z,93.75
2022-09-20T18:45:57.792Z,93.66
2022-09-20T18:48:25.184Z,93.41
2022-09-20T18:50:58.629Z,93.33
2022-09-20T18:53:29.547Z,93.32
2022-09-20T18:55:56.637Z,92.93
2022-09-20T18:58:24.181Z,92.64
2022-09-20T19:01:01.150Z,92.21
2022-09-20T19:03:32.858Z,92.09
2022-09-20T19:06:05.457Z,92.71
2022-09-20T19:08:35.043Z,92.52
2022-09-20T19:11:04.234Z,94.14
2022-09-20T19:13:40.376Z,93.42
2022-09-20T19:16:30.675Z,95.44
2022-09-20T19:19:09.481Z,95.02
2022-09-20T19:21:54.793Z,94.62
2022-09-20T19:24:24.226Z,94.43
2022-09-20T19:26:50.986Z,94.02
2022-09-20T19:29:19.660Z,93.86
2022-09-20T19:31:50.278Z,93.64
2022-09-20T19:34:21.566Z,93.57
2022-09-20T19:37:02.624Z,93.44
2022-09-20T19:39:36.240Z,93.48
2022-09-20T19:42:14.897Z,92.22
2022-09-20T19:45:00.412Z,92.39
2022-09-20T19:47:38.024Z,92.08
2022-09-20T19:50:04.609Z,92.21
2022-09-20T19:52:31.430Z,92.47
2022-09-20T19:54:58.253Z,92.71
2022-09-20T19:57:51.312Z,93.45
2022-09-20T20:00:18.892Z,93.76
2022-09-20T20:02:46.070Z,96.48
2022-09-20T20:05:13.922Z,99.63
2022-09-20T20:07:53.559Z,97.42
2022-09-20T20:10:30.507Z,97.29
2022-09-20T20:13:29.388Z,97.01
2022-09-20T20:16:02.330Z,96.39
2022-09-20T20:19:01.567Z,97.56
2022-09-20T20:21:46.554Z,94.94
2022-09-20T20:24:22.958Z,99.56
2022-09-20T20:26:49.565Z,100.00
2022-09-20T20:29:16.129Z,98.30
2022-09-20T20:31:42.726Z,97.20
2022-09-20T20:34:09.523Z,98.52
2022-09-20T20:36:36.050Z,97.95
2022-09-20T20:39:02.827Z,98.81
2022-09-20T20:41:31.910Z,100.00
2022-09-20T20:43:58.519Z,100.00
2022-09-20T20:46:25.778Z,100.00
2022-09-20T20:48:52.521Z,100.00
2022-09-20T20:51:20.363Z,100.00
2022-09-20T20:53:51.430Z,100.00
2022-09-20T20:56:21.037Z,100.00
2022-09-20T20:58:48.096Z,100.00
2022-09-20T21:01:26.664Z,100.00
2022-09-20T21:03:54.234Z,100.00
2022-09-20T21:06:21.925Z,100.00
2022-09-20T21:08:49.694Z,100.00
2022-09-20T21:11:16.788Z,100.00
2022-09-20T21:13:43.463Z,100.00
2022-09-20T21:16:11.314Z,100.00
2022-09-20T21:18:39.669Z,100.00
2022-09-20T21:21:13.673Z,100.00
2022-09-20T21:23:40.229Z,100.00
2022-09-20T21:26:08.606Z,100.00
2022-09-20T21:28:36.833Z,100.00
2022-09-20T21:31:06.889Z,100.00
2022-09-20T21:33:34.496Z,100.00
2022-09-20T21:36:01.217Z,100.00
2022-09-20T21:38:28.621Z,100.00
2022-09-20T21:41:08.723Z,100.00
2022-09-20T21:43:35.660Z,100.00
2022-09-20T21:46:02.574Z,100.00
2022-09-20T21:48:29.598Z,100.00
2022-09-20T21:51:03.385Z,100.00
2022-09-20T21:53:29.980Z,100.00
2022-09-20T21:56:00.274Z,100.00
2022-09-20T21:58:27.408Z,100.00
2022-09-20T22:00:56.968Z,100.00
2022-09-20T22:03:23.526Z,100.00
2022-09-20T22:05:50.087Z,100.00
2022-09-20T22:08:16.851Z,100.00
2022-09-20T22:10:43.578Z,100.00
2022-09-20T22:13:10.097Z,100.00
2022-09-20T22:15:36.705Z,100.00
2022-09-20T22:18:05.053Z,100.00
2022-09-20T22:20:31.612Z,100.00
2022-09-20T22:22:58.199Z,100.00
2022-09-20T22:25:25.403Z,100.00
2022-09-20T22:27:51.957Z,100.00
2022-09-20T22:30:18.619Z,100.00
2022-09-20T22:32:45.164Z,100.00
2022-09-20T22:35:12.736Z,100.00
2022-09-20T22:37:39.272Z,100.00
2022-09-20T22:40:06.167Z,100.00
2022-09-20T22:42:32.738Z,100.00
2022-09-20T22:44:59.642Z,100.00
2022-09-20T22:47:26.526Z,100.00
2022-09-20T22:49:53.072Z,100.00
2022-09-20T22:52:19.611Z,100.00
2022-09-20T22:54:46.763Z,100.00
2022-09-20T22:57:13.614Z,100.00
2022-09-20T22:59:40.203Z,100.00
2022-09-20T23:02:06.732Z,100.00
2022-09-20T23:04:33.345Z,100.00
2022-09-20T23:06:59.911Z,100.00
2022-09-20T23:09:28.029Z,100.00
2022-09-20T23:11:54.621Z,100.00
2022-09-20T23:14:21.680Z,100.00
2022-09-20T23:16:48.433Z,100.00
2022-09-20T23:19:15.090Z,100.00
2022-09-20T23:21:42.576Z,100.00
2022-09-20T23:24:10.396Z,100.00
2022-09-20T23:26:37.538Z,100.00
2022-09-20T23:29:05.402Z,100.00
2022-09-20T23:31:34.660Z,100.00
2022-09-20T23:34:02.243Z,100.00
2022-09-20T23:36:29.989Z,100.00
2022-09-20T23:38:57.107Z,100.00
2022-09-20T23:41:25.183Z,100.00
2022-09-20T23:43:52.115Z,100.00
2022-09-20T23:46:19.364Z,100.00
2022-09-20T23:48:46.208Z,100.00
2022-09-20T23:51:17.103Z,100.00
2022-09-20T23:53:44.200Z,100.00
2022-09-20T23:56:11.518Z,100.00
2022-09-20T23:58:39.375Z,100.00
